Time;durP1;ratioP1;P1;durP2;ratioP2;P2;SDS_P1;SDS_P2;PMS_P1;PMS_P2;Temp;Humidity;BMP_temperature;BMP_pressure;BME280_temperature;BME280_humidity;BME280_pressure;Samples;Min_cycle;Max_cycle;Signal;HPM_P1;HPM_P2
2021/11/04 00:00:23;;;;;;;1.75;1.65;;;;;;;9.58;67.22;99882.53;6276253;22;20490;-78
2021/11/04 00:02:51;;;;;;;1.38;1.27;;;;;;;9.61;67.39;99880.06;6277155;22;20007;-77
2021/11/04 00:05:17;;;;;;;1.30;1.20;;;;;;;9.57;67.01;99868.06;6298107;22;20007;-78
2021/11/04 00:07:45;;;;;;;1.02;1.02;;;;;;;9.50;66.98;99856.59;6305532;22;20051;-78
2021/11/04 00:10:11;;;;;;;1.50;1.45;;;;;;;9.59;66.97;99886.88;6244810;22;20029;-77
2021/11/04 00:12:36;;;;;;;1.65;1.55;;;;;;;9.47;67.08;99868.06;6276855;22;20007;-76
2021/11/04 00:15:03;;;;;;;0.93;0.73;;;;;;;9.56;67.19;99877.34;6301891;22;20538;-74
2021/11/04 00:17:31;;;;;;;1.10;1.10;;;;;;;9.52;66.84;99881.72;6301931;22;20009;-76
2021/11/04 00:20:05;;;;;;;0.95;0.95;;;;;;;9.43;67.01;99877.88;6305492;22;20079;-75
2021/11/04 00:22:33;;;;;;;1.67;1.52;;;;;;;9.39;67.03;99876.78;6303772;22;20007;-75
2021/11/04 00:24:59;;;;;;;0.82;0.82;;;;;;;9.38;66.46;99888.78;6276828;22;20034;-74
2021/11/04 00:27:24;;;;;;;0.88;0.88;;;;;;;9.34;67.00;99891.22;6302564;22;20064;-75
2021/11/04 00:29:50;;;;;;;0.93;0.93;;;;;;;9.26;66.59;99887.13;6306788;22;20477;-76
2021/11/04 00:32:22;;;;;;;1.10;1.10;;;;;;;9.23;67.20;99889.59;6305300;22;19999;-76
2021/11/04 00:34:47;;;;;;;1.73;1.58;;;;;;;9.26;66.77;99892.59;6304778;22;20030;-74
2021/11/04 00:37:13;;;;;;;0.80;0.77;;;;;;;9.23;66.91;99895.88;6276062;22;20421;-75
2021/11/04 00:39:41;;;;;;;1.50;1.40;;;;;;;9.07;67.21;99880.56;6276513;22;20079;-76
2021/11/04 00:42:06;;;;;;;1.42;1.33;;;;;;;9.03;67.09;99895.81;6301238;22;20098;-76
2021/11/04 00:44:34;;;;;;;1.00;1.00;;;;;;;8.84;67.17;99882.66;6275208;22;20430;-75
2021/11/04 00:46:59;;;;;;;2.03;1.75;;;;;;;8.73;67.67;99890.00;6308690;22;20014;-76
2021/11/04 00:49:27;;;;;;;1.75;1.60;;;;;;;8.62;68.04;99887.50;6309778;22;20010;-76
2021/11/04 00:51:53;;;;;;;2.28;1.92;;;;;;;8.65;68.09;99897.88;6256490;22;20003;-76
2021/11/04 00:54:19;;;;;;;2.10;2.00;;;;;;;8.65;68.66;99892.41;6309488;22;20033;-77
2021/11/04 00:56:45;;;;;;;1.50;1.40;;;;;;;8.68;68.02;99892.69;6311110;22;20003;-78
2021/11/04 00:59:10;;;;;;;1.50;1.40;;;;;;;8.79;68.49;99896.28;6309673;22;20512;-78
2021/11/04 01:01:35;;;;;;;1.60;1.50;;;;;;;8.77;68.18;99903.91;6311544;22;20007;-77
2021/11/04 01:04:01;;;;;;;1.10;1.10;;;;;;;8.65;67.95;99895.16;6301702;22;20015;-77
2021/11/04 01:06:26;;;;;;;1.83;1.73;;;;;;;8.59;68.14;99905.19;6280692;22;20067;-76
2021/11/04 01:08:52;;;;;;;2.58;1.73;;;;;;;8.48;68.27;99904.31;6308991;22;20003;-76
2021/11/04 01:11:18;;;;;;;2.10;2.00;;;;;;;8.42;68.34;99910.78;6278734;22;20429;-76
2021/11/04 01:13:45;;;;;;;2.22;1.92;;;;;;;8.36;68.38;99906.41;6281870;22;20014;-74
2021/11/04 01:16:10;;;;;;;2.15;1.83;;;;;;;8.30;69.18;99904.75;6309064;22;20014;-76
2021/11/04 01:18:36;;;;;;;1.98;1.88;;;;;;;8.21;68.57;99897.06;6306976;22;19999;-75
2021/11/04 01:21:02;;;;;;;1.70;1.60;;;;;;;8.16;69.49;99902.50;6307337;22;20098;-77
2021/11/04 01:23:28;;;;;;;1.80;1.70;;;;;;;8.07;68.86;99901.31;6303402;22;20010;-78
2021/11/04 01:25:53;;;;;;;1.63;1.58;;;;;;;8.02;68.83;99899.38;6252024;22;20027;-78
2021/11/04 01:28:21;;;;;;;1.55;1.45;;;;;;;8.00;68.82;99906.16;6249915;22;20011;-76
2021/11/04 01:30:47;;;;;;;2.40;2.30;;;;;;;7.88;69.45;99900.09;6301866;22;20015;-75
2021/11/04 01:33:15;;;;;;;1.45;1.45;;;;;;;7.84;69.35;99916.97;6300496;22;20086;-76
2021/11/04 01:35:40;;;;;;;1.40;1.30;;;;;;;7.73;69.79;99911.69;6303028;22;20110;-76
2021/11/04 01:38:18;;;;;;;1.50;1.40;;;;;;;7.64;70.28;99914.06;6302164;22;20019;-75
2021/11/04 01:40:44;;;;;;;1.27;1.27;;;;;;;7.61;70.17;99920.03;6303264;22;20031;-75
2021/11/04 01:43:12;;;;;;;1.70;1.60;;;;;;;7.58;69.40;99920.53;6278468;22;20010;-74
2021/11/04 01:45:37;;;;;;;1.92;1.80;;;;;;;7.56;70.64;99922.69;6313966;22;20034;-74
2021/11/04 01:48:03;;;;;;;1.83;1.65;;;;;;;7.49;69.83;99923.75;6311058;22;20016;-75
2021/11/04 01:50:29;;;;;;;1.55;1.45;;;;;;;7.45;70.72;99927.25;6316650;22;20056;-75
2021/11/04 01:52:55;;;;;;;2.20;2.10;;;;;;;7.39;70.37;99920.94;6311641;22;20010;-74
2021/11/04 01:55:37;;;;;;;3.17;2.10;;;;;;;7.36;71.04;99913.28;6306119;22;20007;-77
2021/11/04 01:58:02;;;;;;;2.58;2.25;;;;;;;7.41;71.09;99928.81;6311465;22;20003;-79
2021/11/04 02:00:35;;;;;;;2.35;2.15;;;;;;;7.32;71.24;99917.59;6322228;22;20081;-79
2021/11/04 02:03:24;;;;;;;1.67;1.58;;;;;;;7.34;71.32;99926.28;6311553;22;20049;-84
2021/11/04 02:05:58;;;;;;;2.20;2.10;;;;;;;7.19;71.28;99901.69;6305398;22;20007;-81
2021/11/04 02:08:36;;;;;;;1.67;1.58;;;;;;;7.35;71.54;99927.94;6306672;22;20006;-75
2021/11/04 02:11:15;;;;;;;2.42;2.33;;;;;;;7.26;71.74;99911.28;6302298;22;20306;-76
2021/11/04 02:13:52;;;;;;;1.85;1.75;;;;;;;7.29;71.22;99918.09;6305303;22;20007;-75
2021/11/04 02:16:27;;;;;;;3.65;2.42;;;;;;;7.16;71.51;99913.88;6303314;22;20818;-74
2021/11/04 02:18:56;;;;;;;2.75;2.55;;;;;;;7.10;71.48;99914.91;6278188;22;20325;-75
2021/11/04 02:21:38;;;;;;;1.80;1.70;;;;;;;7.22;71.83;99940.06;6278338;22;20413;-74
2021/11/04 02:24:11;;;;;;;1.60;1.58;;;;;;;7.22;72.02;99921.00;6276863;22;20007;-78
2021/11/04 02:26:38;;;;;;;1.95;1.85;;;;;;;7.27;72.54;99931.97;6265587;22;20377;-72
2021/11/04 02:29:06;;;;;;;2.40;2.28;;;;;;;7.23;71.66;99919.09;6243749;23;20015;-73
2021/11/04 02:31:33;;;;;;;2.50;1.42;;;;;;;7.22;71.79;99926.47;6262940;22;20000;-72
2021/11/04 02:34:00;;;;;;;2.08;1.98;;;;;;;7.22;71.71;99928.38;6217342;23;20012;-71
2021/11/04 02:36:33;;;;;;;2.13;2.03;;;;;;;7.19;71.14;99928.88;6242598;22;20011;-75
2021/11/04 02:39:00;;;;;;;5.45;2.00;;;;;;;7.21;71.56;99932.16;6240446;23;20008;-75
2021/11/04 02:41:30;;;;;;;2.53;1.98;;;;;;;7.19;72.21;99928.88;6240888;23;20422;-76
2021/11/04 02:43:56;;;;;;;2.08;1.98;;;;;;;7.21;71.51;99934.88;6243509;23;20087;-76
2021/11/04 02:46:22;;;;;;;1.75;1.55;;;;;;;7.23;71.59;99929.97;6240452;23;20079;-74
2021/11/04 02:48:49;;;;;;;1.75;1.52;;;;;;;7.22;71.75;99922.94;6244203;23;20034;-74
2021/11/04 02:51:16;;;;;;;1.98;1.85;;;;;;;7.23;72.56;99938.16;6241125;23;20053;-75
2021/11/04 02:53:45;;;;;;;1.60;1.50;;;;;;;7.25;72.06;99927.84;6240246;23;20288;-73
2021/11/04 02:56:11;;;;;;;2.97;2.28;;;;;;;7.29;71.95;99923.53;6242295;23;20028;-74
2021/11/04 02:58:36;;;;;;;1.27;1.17;;;;;;;7.34;71.63;99929.03;6237317;23;20327;-74
2021/11/04 03:01:04;;;;;;;1.77;1.67;;;;;;;7.33;71.45;99932.84;6242731;23;20012;-75
2021/11/04 03:03:29;;;;;;;1.90;1.42;;;;;;;7.32;71.79;99928.47;6266341;22;20078;-76
2021/11/04 03:05:58;;;;;;;0.93;0.93;;;;;;;7.37;71.97;99939.38;6273571;22;20031;-75
2021/11/04 03:08:25;;;;;;;0.77;0.77;;;;;;;7.38;71.64;99938.31;6247508;22;20031;-75
2021/11/04 03:10:53;;;;;;;0.88;0.88;;;;;;;7.37;71.46;99935.84;6221008;22;20012;-74
2021/11/04 03:13:19;;;;;;;1.20;1.00;;;;;;;7.29;71.78;99929.78;6280406;22;20057;-74
2021/11/04 03:15:55;;;;;;;1.05;0.95;;;;;;;7.35;72.31;99930.66;6283757;22;20000;-74
2021/11/04 03:18:22;;;;;;;0.73;0.73;;;;;;;7.42;71.75;99944.88;6282420;22;20004;-74
2021/11/04 03:20:48;;;;;;;4.18;1.10;;;;;;;7.40;71.70;99935.34;6277378;22;20295;-75
2021/11/04 03:23:14;;;;;;;0.65;0.65;;;;;;;7.39;71.71;99928.25;6272399;22;20012;-75
2021/11/04 03:25:42;;;;;;;0.40;0.40;;;;;;;7.36;71.33;99935.03;6298488;22;20112;-76
2021/11/04 03:28:08;;;;;;;0.70;0.70;;;;;;;7.39;71.20;99936.41;6305756;22;20098;-74
2021/11/04 03:30:38;;;;;;;0.50;0.50;;;;;;;7.49;71.36;99950.94;6303624;22;20483;-75
2021/11/04 03:33:07;;;;;;;0.60;0.60;;;;;;;7.50;71.40;99936.28;6305787;22;20003;-75
2021/11/04 03:35:36;;;;;;;0.60;0.60;;;;;;;7.46;71.29;99940.59;6307794;22;20003;-72
2021/11/04 03:38:11;;;;;;;0.80;0.80;;;;;;;7.52;71.43;99949.63;6306252;22;20436;-79
2021/11/04 03:40:39;;;;;;;0.43;0.40;;;;;;;7.59;71.29;99963.00;6303854;22;20003;-77
2021/11/04 03:43:06;;;;;;;0.73;0.73;;;;;;;7.62;71.16;99965.19;6305229;22;19999;-75
2021/11/04 03:45:36;;;;;;;0.63;0.63;;;;;;;7.56;70.77;99955.34;6304778;22;20421;-75
2021/11/04 03:48:03;;;;;;;0.75;0.55;;;;;;;7.65;71.39;99960.09;6303874;22;20007;-75
2021/11/04 03:50:32;;;;;;;0.60;0.60;;;;;;;7.60;70.57;99951.03;6303379;22;20007;-76
2021/11/04 03:53:00;;;;;;;4.15;0.57;;;;;;;7.59;71.14;99943.94;6299552;22;20003;-75
2021/11/04 03:55:35;;;;;;;0.60;0.60;;;;;;;7.55;70.26;99948.25;6302342;22;20073;-75
2021/11/04 03:58:01;;;;;;;0.50;0.45;;;;;;;7.64;69.80;99957.63;6277468;22;20003;-74
2021/11/04 04:00:27;;;;;;;0.40;0.32;;;;;;;7.65;70.09;99964.69;6302924;22;20003;-74
2021/11/04 04:03:00;;;;;;;1.23;0.90;;;;;;;7.62;70.24;99966.03;6300300;22;20310;-74
2021/11/04 04:05:31;;;;;;;1.27;0.55;;;;;;;7.56;69.78;99966.25;6276226;22;20009;-74
2021/11/04 04:07:57;;;;;;;0.98;0.52;;;;;;;7.49;69.63;99967.28;6301616;22;20364;-73
2021/11/04 04:10:25;;;;;;;0.40;0.40;;;;;;;7.51;69.89;99954.22;6300192;22;20007;-74
2021/11/04 04:12:55;;;;;;;0.50;0.38;;;;;;;7.44;69.82;99953.59;6303395;22;20007;-74
2021/11/04 04:15:21;;;;;;;1.45;0.40;;;;;;;7.56;70.38;99971.69;6275501;22;20014;-74
2021/11/04 04:17:46;;;;;;;0.50;0.50;;;;;;;7.47;70.33;99971.31;6303645;22;20390;-75
2021/11/04 04:20:14;;;;;;;0.30;0.30;;;;;;;7.56;69.36;99988.00;6302674;22;20086;-73
2021/11/04 04:22:40;;;;;;;0.17;0.17;;;;;;;7.48;69.50;99987.38;6304635;22;20008;-72
2021/11/04 04:25:06;;;;;;;0.32;0.32;;;;;;;7.48;69.89;99990.09;6303302;22;20027;-75
2021/11/04 04:27:33;;;;;;;0.63;0.40;;;;;;;7.46;69.49;99983.28;6253893;22;20087;-74
2021/11/04 04:29:59;;;;;;;0.32;0.32;;;;;;;7.49;68.69;99994.47;6300277;22;20010;-73
2021/11/04 04:32:28;;;;;;;0.65;0.32;;;;;;;7.48;69.86;99997.47;6304675;22;20325;-73
2021/11/04 04:34:56;;;;;;;0.32;0.30;;;;;;;7.43;69.18;100000.94;6305732;22;19999;-75
2021/11/04 04:37:21;;;;;;;0.10;0.10;;;;;;;7.43;69.60;100006.41;6276640;22;20014;-74
2021/11/04 04:39:54;;;;;;;0.40;0.40;;;;;;;7.29;68.49;99994.25;6306547;22;20003;-75
2021/11/04 04:42:20;;;;;;;0.32;0.32;;;;;;;7.27;69.15;100001.84;6303067;22;19996;-74
2021/11/04 04:44:50;;;;;;;0.30;0.30;;;;;;;7.21;68.64;100002.84;6304471;22;20042;-73
2021/11/04 04:47:16;;;;;;;0.30;0.30;;;;;;;7.24;69.11;100008.63;6304714;22;20003;-73
2021/11/04 04:49:43;;;;;;;0.40;0.40;;;;;;;7.31;68.33;100016.56;6275514;22;20014;-74
2021/11/04 04:52:11;;;;;;;0.30;0.20;;;;;;;7.30;68.68;100007.59;6276014;22;20061;-75
2021/11/04 04:54:37;;;;;;;1.77;0.30;;;;;;;7.30;69.08;100017.63;6301310;22;20007;-74
2021/11/04 04:57:05;;;;;;;0.20;0.20;;;;;;;7.27;67.94;100018.16;6305279;22;20038;-75
2021/11/04 04:59:30;;;;;;;0.95;0.20;;;;;;;7.29;68.67;100018.75;6299522;22;20076;-74
2021/11/04 05:01:56;;;;;;;0.50;0.25;;;;;;;7.31;68.76;100024.72;6304429;22;20418;-73
2021/11/04 05:04:21;;;;;;;0.35;0.20;;;;;;;7.31;69.06;100014.66;6274919;22;20041;-74
2021/11/04 05:06:47;;;;;;;5.50;0.38;;;;;;;7.23;67.88;100014.28;6272469;22;20056;-75
2021/11/04 05:09:12;;;;;;;0.28;0.20;;;;;;;7.15;68.09;100013.69;6301819;22;20007;-74
2021/11/04 05:11:38;;;;;;;0.20;0.20;;;;;;;7.29;67.84;100029.63;6300371;22;19991;-74
2021/11/04 05:14:06;;;;;;;0.63;0.32;;;;;;;7.15;68.28;100021.00;6275673;22;20041;-73
2021/11/04 05:16:32;;;;;;;0.10;0.10;;;;;;;7.15;67.46;100031.88;6302344;22;20011;-74
2021/11/04 05:19:09;;;;;;;4.00;0.50;;;;;;;7.18;67.61;100053.13;6270593;22;20007;-75
2021/11/04 05:21:35;;;;;;;0.60;0.30;;;;;;;7.08;68.11;100045.69;6302952;22;20337;-75
2021/11/04 05:24:12;;;;;;;0.35;0.28;;;;;;;6.98;67.48;100031.97;6277894;22;20228;-75
2021/11/04 05:26:37;;;;;;;0.82;0.30;;;;;;;6.98;68.20;100042.84;6279767;22;20019;-75
2021/11/04 05:29:05;;;;;;;1.65;0.40;;;;;;;6.96;68.28;100050.41;6299724;22;20011;-75
2021/11/04 05:31:34;;;;;;;3.75;0.30;;;;;;;6.85;68.15;100059.47;6304129;22;20060;-75
2021/11/04 05:34:02;;;;;;;0.43;0.35;;;;;;;6.74;67.88;100056.63;6303393;22;20019;-74
2021/11/04 05:36:30;;;;;;;0.40;0.38;;;;;;;6.66;67.72;100062.50;6303505;22;20140;-74
2021/11/04 05:38:56;;;;;;;0.15;0.15;;;;;;;6.64;68.58;100064.63;6279779;22;20007;-76
2021/11/04 05:41:32;;;;;;;0.20;0.20;;;;;;;6.57;68.27;100074.81;6306334;22;20003;-75
2021/11/04 05:43:59;;;;;;;0.10;0.10;;;;;;;6.54;68.88;100084.31;6305043;22;20007;-76
2021/11/04 05:46:25;;;;;;;0.32;0.20;;;;;;;6.48;68.29;100079.84;6277763;22;20444;-75
2021/11/04 05:48:50;;;;;;;0.28;0.28;;;;;;;6.34;67.89;100073.09;6303811;22;20011;-75
2021/11/04 05:51:16;;;;;;;0.20;0.20;;;;;;;6.30;68.50;100086.38;6303665;22;20113;-76
2021/11/04 05:53:41;;;;;;;3.10;0.30;;;;;;;6.16;68.32;100071.44;6304482;22;20353;-73
2021/11/04 05:56:09;;;;;;;0.28;0.20;;;;;;;6.17;69.36;100092.94;6276053;22;20440;-74
2021/11/04 05:58:35;;;;;;;0.52;0.32;;;;;;;6.08;69.00;100092.50;6303539;22;20014;-75
2021/11/04 06:01:08;;;;;;;0.30;0.25;;;;;;;6.00;68.77;100092.91;6304217;22;20007;-75
2021/11/04 06:03:44;;;;;;;0.75;0.30;;;;;;;5.90;69.91;100093.50;6303309;22;20007;-75
2021/11/04 06:06:09;;;;;;;0.40;0.30;;;;;;;5.68;69.69;100063.53;6280884;22;20038;-75
2021/11/04 06:08:35;;;;;;;0.77;0.30;;;;;;;5.67;69.51;100078.16;6304059;22;19999;-74
2021/11/04 06:11:00;;;;;;;0.25;0.25;;;;;;;5.73;70.55;100093.47;6274169;22;20737;-76
2021/11/04 06:13:30;;;;;;;0.30;0.30;;;;;;;5.57;70.55;100077.97;6275576;22;20075;-76
2021/11/04 06:15:58;;;;;;;0.32;0.30;;;;;;;5.60;70.84;100088.31;6304156;22;20007;-75
2021/11/04 06:18:26;;;;;;;0.60;0.40;;;;;;;5.44;70.71;100083.66;6303281;22;20011;-75
2021/11/04 06:20:54;;;;;;;1.17;0.43;;;;;;;5.34;70.96;100090.50;6302643;22;20034;-75
2021/11/04 06:23:33;;;;;;;0.38;0.38;;;;;;;5.19;71.80;100076.66;6305269;22;20610;-75
2021/11/04 06:26:02;;;;;;;1.33;0.40;;;;;;;5.22;71.62;100095.16;6278598;22;20129;-76
2021/11/04 06:28:27;;;;;;;0.50;0.50;;;;;;;5.14;71.93;100100.91;6278262;22;20007;-76
2021/11/04 06:30:53;;;;;;;0.30;0.30;;;;;;;5.09;71.54;100098.13;6252959;22;20013;-75
2021/11/04 06:33:18;;;;;;;0.57;0.30;;;;;;;4.97;72.07;100088.09;6275176;22;20015;-76
2021/11/04 06:35:43;;;;;;;0.95;0.35;;;;;;;4.97;72.36;100096.25;6306512;22;20003;-76
2021/11/04 06:38:09;;;;;;;0.50;0.50;;;;;;;4.94;72.49;100096.72;6305216;22;20015;-76
2021/11/04 06:40:37;;;;;;;0.30;0.28;;;;;;;4.89;72.68;100102.00;6304944;22;19999;-77
2021/11/04 06:43:03;;;;;;;0.50;0.43;;;;;;;4.84;73.00;100107.31;6276714;22;20365;-75
2021/11/04 06:45:32;;;;;;;1.00;0.47;;;;;;;4.90;73.02;100112.59;6277733;22;20003;-73
2021/11/04 06:48:02;;;;;;;0.50;0.50;;;;;;;4.87;73.68;100114.97;6302905;22;20381;-74
2021/11/04 06:50:32;;;;;;;0.30;0.30;;;;;;;4.92;73.46;100109.69;6250343;22;20007;-73
2021/11/04 06:53:08;;;;;;;0.40;0.40;;;;;;;4.96;73.09;100137.94;6300174;22;20418;-76
2021/11/04 06:55:36;;;;;;;6.03;0.63;;;;;;;4.92;72.94;100131.38;6304941;22;20007;-76
2021/11/04 06:58:05;;;;;;;2.15;0.45;;;;;;;4.87;73.51;100133.94;6224147;22;20353;-77
2021/11/04 07:00:36;;;;;;;0.30;0.30;;;;;;;4.89;73.07;100131.81;6305409;22;19999;-77
2021/11/04 07:03:18;;;;;;;0.40;0.35;;;;;;;4.86;73.20;100132.28;6305451;22;20003;-76
2021/11/04 07:06:00;;;;;;;0.38;0.38;;;;;;;4.86;72.81;100137.69;6302654;22;20083;-74
2021/11/04 07:08:39;;;;;;;;;;;;;;;;;;;;;
2021/11/04 07:11:38;;;;;;;0.43;0.30;;;;;;;4.93;73.09;100143.81;6302628;22;20074;-78
2021/11/04 07:14:12;;;;;;;0.45;0.30;;;;;;;4.98;73.38;100152.09;6277662;22;20112;-80
2021/11/04 07:19:58;;;;;;;0.40;0.40;;;;;;;4.94;73.20;100145.50;6289669;22;20302;-77
2021/11/04 07:26:15;;;;;;;0.32;0.30;;;;;;;4.88;72.78;100143.72;6218208;22;20463;-76
2021/11/04 07:28:56;;;;;;;;;;;;;;;;;;;;;
2021/11/04 07:31:35;;;;;;;3.58;0.50;;;;;;;5.05;72.90;100177.19;6277222;22;20070;-77
2021/11/04 07:34:03;;;;;;;0.38;0.38;;;;;;;5.05;72.97;100174.47;6279104;22;20009;-75
2021/11/04 07:36:52;;;;;;;;;;;;;;;;;;;;;
2021/11/04 07:39:23;;;;;;;0.40;0.40;;;;;;;5.02;72.67;100157.84;6257827;22;20074;-77
2021/11/04 07:41:54;;;;;;;0.75;0.40;;;;;;;5.18;72.91;100186.13;6277326;22;20330;-77
2021/11/04 07:44:23;;;;;;;0.50;0.28;;;;;;;5.25;72.63;100194.97;6275381;22;20011;-77
2021/11/04 07:46:49;;;;;;;0.30;0.30;;;;;;;5.31;73.16;100194.03;6304243;22;20421;-75
2021/11/04 07:49:30;;;;;;;2.05;0.40;;;;;;;5.36;72.91;100194.16;6304861;22;20007;-76
2021/11/04 07:51:59;;;;;;;0.20;0.20;;;;;;;5.45;72.67;100193.78;6250988;22;20035;-75
2021/11/04 07:54:26;;;;;;;0.65;0.40;;;;;;;5.57;72.06;100198.13;6303016;22;20105;-77
2021/11/04 07:56:55;;;;;;;1.55;0.65;;;;;;;5.80;72.12;100209.16;6250207;22;20019;-77
2021/11/04 07:59:24;;;;;;;0.20;0.20;;;;;;;5.99;71.53;100210.69;6306559;22;20279;-79
2021/11/04 08:01:55;;;;;;;0.50;0.45;;;;;;;6.03;70.95;100217.28;6275947;22;20011;-76
2021/11/04 08:04:26;;;;;;;0.45;0.32;;;;;;;6.04;71.00;100213.50;6303883;22;20042;-78
2021/11/04 08:06:57;;;;;;;2.50;0.38;;;;;;;6.05;70.64;100225.19;6306112;22;20060;-78
2021/11/04 08:09:25;;;;;;;0.20;0.20;;;;;;;6.07;71.11;100226.59;6277054;22;20015;-76
2021/11/04 08:11:51;;;;;;;0.73;0.20;;;;;;;6.04;70.66;100229.78;6301280;22;20003;-71
2021/11/04 08:14:16;;;;;;;0.25;0.20;;;;;;;5.95;70.00;100231.19;6300207;22;20007;-73
2021/11/04 08:16:42;;;;;;;0.17;0.10;;;;;;;6.00;70.69;100239.50;6281303;22;20011;-72
2021/11/04 08:19:07;;;;;;;4.88;0.52;;;;;;;6.01;70.33;100241.13;6300281;22;20091;-72
2021/11/04 08:21:33;;;;;;;1.23;0.25;;;;;;;6.11;69.90;100252.19;6274115;22;20016;-71
2021/11/04 08:23:58;;;;;;;0.30;0.28;;;;;;;6.28;70.89;100248.75;6273021;22;20041;-71
2021/11/04 08:26:24;;;;;;;0.50;0.20;;;;;;;6.85;70.93;100255.19;6302982;22;20015;-71
2021/11/04 08:28:51;;;;;;;0.40;0.32;;;;;;;7.66;69.45;100249.38;6301264;22;20030;-71
2021/11/04 08:31:17;;;;;;;0.17;0.17;;;;;;;8.60;68.25;100254.88;6275253;22;20011;-71
2021/11/04 08:33:43;;;;;;;0.10;0.10;;;;;;;9.58;66.15;100260.06;6298909;22;20011;-71
2021/11/04 08:36:08;;;;;;;0.50;0.30;;;;;;;10.44;63.98;100270.84;6273769;22;20106;-70
2021/11/04 08:38:34;;;;;;;0.10;0.10;;;;;;;11.19;62.15;100267.69;6301822;22;20041;-72
2021/11/04 08:40:59;;;;;;;0.20;0.20;;;;;;;11.39;58.37;100277.81;6295000;22;20018;-72
2021/11/04 08:43:25;;;;;;;0.28;0.20;;;;;;;11.18;58.24;100279.72;6302005;22;20011;-71
2021/11/04 08:45:51;;;;;;;0.22;0.10;;;;;;;11.23;57.82;100279.75;6298271;22;20011;-71
2021/11/04 08:48:18;;;;;;;0.30;0.20;;;;;;;11.79;57.67;100291.72;6297044;22;19995;-71
2021/11/04 08:50:45;;;;;;;4.15;0.30;;;;;;;11.97;55.80;100288.44;6300108;22;20003;-71
2021/11/04 08:53:11;;;;;;;0.10;0.10;;;;;;;11.87;55.75;100304.84;6271154;22;20011;-70
2021/11/04 08:55:37;;;;;;;0.10;0.10;;;;;;;12.13;55.88;100296.59;6253583;22;20089;-71
2021/11/04 08:58:02;;;;;;;0.30;0.30;;;;;;;12.39;53.78;100300.88;6300708;22;20006;-71
2021/11/04 09:00:28;;;;;;;0.20;0.10;;;;;;;12.07;53.03;100303.19;6300754;22;20003;-71
2021/11/04 09:02:53;;;;;;;0.10;0.10;;;;;;;11.57;53.06;100300.25;6299409;22;20011;-70
2021/11/04 09:05:19;;;;;;;0.20;0.10;;;;;;;11.17;54.12;100308.22;6270962;22;20074;-71
2021/11/04 09:07:44;;;;;;;0.10;0.10;;;;;;;10.86;54.88;100310.88;6298623;22;20015;-71
2021/11/04 09:10:13;;;;;;;0.45;0.20;;;;;;;10.57;55.48;100305.91;6273992;22;20042;-70
2021/11/04 09:12:39;;;;;;;0.20;0.13;;;;;;;10.44;55.89;100317.34;6301065;22;20017;-71
2021/11/04 09:15:05;;;;;;;0.82;0.17;;;;;;;10.37;56.42;100311.31;6274466;22;20007;-70
2021/11/04 09:17:31;;;;;;;0.70;0.08;;;;;;;10.30;56.71;100323.25;6272768;22;20011;-70
2021/11/04 09:19:57;;;;;;;0.30;0.10;;;;;;;10.28;56.66;100314.53;6300545;22;20003;-70
2021/11/04 09:22:22;;;;;;;0.28;0.10;;;;;;;10.26;57.09;100313.94;6297346;22;20006;-70
2021/11/04 09:24:48;;;;;;;0.10;0.08;;;;;;;10.33;57.23;100321.91;6272606;22;20011;-71
2021/11/04 09:27:15;;;;;;;0.45;0.10;;;;;;;10.46;56.49;100320.63;6274004;22;20065;-71
2021/11/04 09:29:41;;;;;;;0.30;0.25;;;;;;;10.65;56.52;100332.72;6293523;22;20387;-71
2021/11/04 09:32:08;;;;;;;0.10;0.10;;;;;;;11.42;56.77;100331.19;6301994;22;20013;-70
2021/11/04 09:34:34;;;;;;;0.20;0.13;;;;;;;12.44;55.82;100332.13;6296925;22;20397;-70
2021/11/04 09:37:02;;;;;;;0.10;0.10;;;;;;;13.16;53.29;100331.72;6300154;22;19999;-71
2021/11/04 09:39:28;;;;;;;0.13;0.10;;;;;;;13.37;51.09;100330.47;6298890;22;20014;-71
2021/11/04 09:41:55;;;;;;;1.02;0.20;;;;;;;13.19;50.67;100333.91;6298010;22;20271;-71
2021/11/04 09:44:20;;;;;;;0.43;0.20;;;;;;;12.93;51.04;100336.81;6270774;22;20014;-70
2021/11/04 09:46:46;;;;;;;0.45;0.20;;;;;;;12.83;51.32;100347.84;6271361;22;20015;-72
2021/11/04 09:49:12;;;;;;;0.82;0.40;;;;;;;12.47;50.98;100331.56;6298668;22;19999;-71
2021/11/04 09:51:38;;;;;;;0.40;0.20;;;;;;;12.29;51.26;100353.00;6271396;22;20091;-70
2021/11/04 09:54:04;;;;;;;0.35;0.20;;;;;;;12.21;52.27;100353.59;6298549;22;20015;-70
2021/11/04 09:56:30;;;;;;;2.45;0.30;;;;;;;12.57;51.83;100353.44;6271215;22;20011;-71
2021/11/04 09:58:56;;;;;;;4.03;0.30;;;;;;;12.81;50.98;100353.63;6300794;22;20000;-70
2021/11/04 10:01:31;;;;;;;0.22;0.10;;;;;;;13.21;51.65;100361.88;6299683;22;20007;-71
2021/11/04 10:03:58;;;;;;;0.37;0.10;;;;;;;13.76;49.92;100359.81;6272907;22;20007;-70
2021/11/04 10:06:27;;;;;;;0.65;0.20;;;;;;;14.28;47.37;100364.78;6302779;22;20011;-71
2021/11/04 10:08:55;;;;;;;0.20;0.20;;;;;;;14.44;47.32;100374.53;6295916;22;20003;-71
2021/11/04 10:11:26;;;;;;;0.10;0.10;;;;;;;14.84;47.16;100377.06;6275500;22;20003;-70
2021/11/04 10:13:58;;;;;;;0.10;0.10;;;;;;;15.54;47.42;100379.06;6303620;22;20030;-70
2021/11/04 10:16:27;;;;;;;0.35;0.35;;;;;;;16.73;46.70;100386.00;6296912;22;20448;-70
2021/11/04 10:18:53;;;;;;;1.50;0.20;;;;;;;17.86;44.95;100377.06;6299942;22;20376;-70
2021/11/04 10:21:30;;;;;;;0.17;0.10;;;;;;;19.18;43.68;100375.56;6301024;22;20008;-70
2021/11/04 10:23:56;;;;;;;0.20;0.20;;;;;;;19.83;40.30;100395.13;6300588;22;20003;-72
2021/11/04 10:26:26;;;;;;;0.13;0.10;;;;;;;20.49;39.97;100393.94;6268704;22;20024;-70
2021/11/04 10:28:59;;;;;;;0.17;0.10;;;;;;;21.25;39.16;100403.31;6267986;22;20047;-70
2021/11/04 10:31:25;;;;;;;0.40;0.10;;;;;;;21.89;37.93;100398.50;6268983;22;20028;-71
2021/11/04 10:33:52;;;;;;;0.00;0.00;;;;;;;22.62;37.57;100402.59;6268226;22;20008;-72
2021/11/04 10:36:20;;;;;;;0.20;0.10;;;;;;;23.22;35.44;100404.84;6270969;22;20008;-71
2021/11/04 10:38:50;;;;;;;0.00;0.00;;;;;;;23.68;32.76;100408.19;6296590;22;20006;-71
2021/11/04 10:41:24;;;;;;;0.03;0.03;;;;;;;23.99;32.89;100409.47;6269314;22;20352;-71
2021/11/04 10:44:01;;;;;;;3.40;0.10;;;;;;;24.37;32.11;100410.84;6273058;22;20004;-70
2021/11/04 10:46:28;;;;;;;0.20;0.10;;;;;;;24.67;30.74;100405.63;6294175;22;20086;-70
2021/11/04 10:49:03;;;;;;;0.25;0.10;;;;;;;25.08;30.79;100405.38;6297502;22;20003;-71
2021/11/04 10:51:33;;;;;;;0.10;0.00;;;;;;;25.50;29.64;100410.31;6271343;22;20570;-69
2021/11/04 10:54:04;;;;;;;0.30;0.30;;;;;;;25.87;29.24;100400.63;6273035;22;20074;-69
2021/11/04 10:56:32;;;;;;;0.20;0.10;;;;;;;26.04;27.51;100404.97;6268537;22;20003;-70
2021/11/04 10:59:06;;;;;;;0.35;0.13;;;;;;;26.13;26.83;100409.13;6271989;22;20010;-71
2021/11/04 11:01:41;;;;;;;0.20;0.15;;;;;;;26.15;26.82;100403.16;6294753;22;20007;-72
2021/11/04 11:04:18;;;;;;;0.05;0.05;;;;;;;26.32;26.87;100406.66;6270427;22;20015;-70
2021/11/04 11:06:52;;;;;;;0.00;0.00;;;;;;;26.49;26.30;100403.34;6271761;22;20973;-71
2021/11/04 11:09:29;;;;;;;0.30;0.00;;;;;;;26.86;26.51;100405.56;6269469;22;20045;-72
2021/11/04 11:11:58;;;;;;;0.10;0.10;;;;;;;27.15;25.99;100405.97;6295357;22;20018;-72
2021/11/04 11:14:25;;;;;;;0.10;0.08;;;;;;;27.32;25.08;100408.22;6270776;22;20004;-70
2021/11/04 11:16:56;;;;;;;0.32;0.20;;;;;;;27.50;24.05;100402.03;6271055;22;20070;-71
2021/11/04 11:19:35;;;;;;;0.08;0.00;;;;;;;27.59;24.27;100402.53;6268960;22;20015;-73
2021/11/04 11:22:00;;;;;;;1.55;0.10;;;;;;;27.47;23.43;100414.84;6270433;22;20008;-72
2021/11/04 11:24:36;;;;;;;0.63;0.20;;;;;;;27.46;23.16;100404.00;6245194;22;20081;-74
2021/11/04 11:27:04;;;;;;;0.30;0.20;;;;;;;27.45;23.62;100414.44;6298871;22;20019;-72
2021/11/04 11:29:38;;;;;;;0.20;0.10;;;;;;;27.76;23.59;100406.75;6298438;22;20013;-72
2021/11/04 11:32:07;;;;;;;2.35;0.20;;;;;;;28.07;23.11;100426.38;6302555;22;20056;-71
2021/11/04 11:34:35;;;;;;;1.52;0.10;;;;;;;28.32;22.87;100416.16;6303196;22;20014;-72
2021/11/04 11:37:15;;;;;;;0.10;0.10;;;;;;;28.72;23.08;100422.97;6297693;22;20015;-72
2021/11/04 11:39:54;;;;;;;0.30;0.10;;;;;;;28.94;22.29;100433.56;6304776;22;20011;-72
2021/11/04 11:42:26;;;;;;;1.02;0.10;;;;;;;29.27;21.87;100431.78;6307779;22;20061;-71
2021/11/04 11:44:55;;;;;;;0.30;0.00;;;;;;;29.62;21.75;100433.94;6301505;22;20086;-72
2021/11/04 11:47:34;;;;;;;0.00;0.00;;;;;;;29.73;22.23;100429.16;6299669;22;20413;-73
2021/11/04 11:50:19;;;;;;;0.10;0.10;;;;;;;30.04;21.75;100442.97;6301988;22;20007;-71
2021/11/04 11:52:51;;;;;;;0.45;0.30;;;;;;;30.33;22.24;100432.53;6273908;22;20436;-72